sensor_id;sensor_type;location;lat;lon;timestamp;temperature;humidity
36856;DHT22;22788;51.434;6.786;2022-09-09T08:17:06;19.70;80.20
36856;DHT22;22788;51.434;6.786;2022-09-09T08:19:32;19.70;81.60
36856;DHT22;22788;51.434;6.786;2022-09-09T08:21:58;19.50;80.90
36856;DHT22;22788;51.434;6.786;2022-09-09T08:24:24;19.40;80.60
36856;DHT22;22788;51.434;6.786;2022-09-09T08:26:50;19.50;80.70
36856;DHT22;22788;51.434;6.786;2022-09-09T08:29:17;19.40;80.00
36856;DHT22;22788;51.434;6.786;2022-09-09T08:31:45;19.40;80.80
36856;DHT22;22788;51.434;6.786;2022-09-09T08:34:13;19.40;81.00
36856;DHT22;22788;51.434;6.786;2022-09-09T08:36:41;19.50;80.90
36856;DHT22;22788;51.434;6.786;2022-09-09T08:39:07;19.50;80.60
36856;DHT22;22788;51.434;6.786;2022-09-09T08:41:52;19.40;79.80
36856;DHT22;22788;51.434;6.786;2022-09-09T08:44:26;19.50;81.10
36856;DHT22;22788;51.434;6.786;2022-09-09T08:47:03;19.50;80.90
36856;DHT22;22788;51.434;6.786;2022-09-09T08:52:49;19.50;80.60
36856;DHT22;22788;51.434;6.786;2022-09-09T08:55:22;19.50;80.30
36856;DHT22;22788;51.434;6.786;2022-09-09T08:57:52;19.50;80.40
36856;DHT22;22788;51.434;6.786;2022-09-09T09:00:19;19.50;80.60
36856;DHT22;22788;51.434;6.786;2022-09-09T09:02:51;19.60;80.40
36856;DHT22;22788;51.434;6.786;2022-09-09T09:05:25;19.60;78.80
36856;DHT22;22788;51.434;6.786;2022-09-09T09:08:02;19.60;80.70
36856;DHT22;22788;51.434;6.786;2022-09-09T09:10:38;19.60;78.60
36856;DHT22;22788;51.434;6.786;2022-09-09T09:13:11;19.70;79.70
36856;DHT22;22788;51.434;6.786;2022-09-09T09:15:38;19.60;80.20
36856;DHT22;22788;51.434;6.786;2022-09-09T09:18:05;19.50;79.00
36856;DHT22;22788;51.434;6.786;2022-09-09T09:20:39;19.60;79.40
36856;DHT22;22788;51.434;6.786;2022-09-09T09:23:19;19.60;79.70
36856;DHT22;22788;51.434;6.786;2022-09-09T09:25:46;19.50;79.80
36856;DHT22;22788;51.434;6.786;2022-09-09T09:28:16;19.60;79.60
36856;DHT22;22788;51.434;6.786;2022-09-09T09:30:45;19.60;79.60
36856;DHT22;22788;51.434;6.786;2022-09-09T09:33:17;19.60;79.40
36856;DHT22;22788;51.434;6.786;2022-09-09T09:35:45;19.60;79.60
36856;DHT22;22788;51.434;6.786;2022-09-09T09:38:17;19.60;79.20
36856;DHT22;22788;51.434;6.786;2022-09-09T09:40:49;19.60;79.90
36856;DHT22;22788;51.434;6.786;2022-09-09T09:43:20;19.60;78.80
36856;DHT22;22788;51.434;6.786;2022-09-09T09:45:47;19.60;78.80
36856;DHT22;22788;51.434;6.786;2022-09-09T09:48:13;19.60;77.10
36856;DHT22;22788;51.434;6.786;2022-09-09T09:50:47;19.60;78.70
36856;DHT22;22788;51.434;6.786;2022-09-09T09:53:21;19.60;79.00
36856;DHT22;22788;51.434;6.786;2022-09-09T09:55:52;19.60;79.20
36856;DHT22;22788;51.434;6.786;2022-09-09T09:58:19;19.60;79.20
36856;DHT22;22788;51.434;6.786;2022-09-09T10:00:47;19.60;78.10
36856;DHT22;22788;51.434;6.786;2022-09-09T10:03:24;19.60;78.80
36856;DHT22;22788;51.434;6.786;2022-09-09T10:05:51;19.70;78.00
36856;DHT22;22788;51.434;6.786;2022-09-09T10:08:19;19.70;78.20
36856;DHT22;22788;51.434;6.786;2022-09-09T10:11:05;19.70;77.50
36856;DHT22;22788;51.434;6.786;2022-09-09T10:13:42;19.70;78.40
36856;DHT22;22788;51.434;6.786;2022-09-09T10:16:25;19.70;78.70
36856;DHT22;22788;51.434;6.786;2022-09-09T10:19:00;19.80;77.90
36856;DHT22;22788;51.434;6.786;2022-09-09T10:21:54;19.80;75.20
36856;DHT22;22788;51.434;6.786;2022-09-09T10:24:35;19.80;78.50
36856;DHT22;22788;51.434;6.786;2022-09-09T10:27:10;19.80;77.40
36856;DHT22;22788;51.434;6.786;2022-09-09T10:30:02;19.80;77.00
36856;DHT22;22788;51.434;6.786;2022-09-09T10:32:37;19.80;77.90
36856;DHT22;22788;51.434;6.786;2022-09-09T10:35:10;19.80;77.70
36856;DHT22;22788;51.434;6.786;2022-09-09T10:38:00;19.80;78.40
36856;DHT22;22788;51.434;6.786;2022-09-09T10:40:32;19.70;78.00
36856;DHT22;22788;51.434;6.786;2022-09-09T10:43:09;19.70;77.20
36856;DHT22;22788;51.434;6.786;2022-09-09T10:45:45;19.70;78.10
36856;DHT22;22788;51.434;6.786;2022-09-09T10:48:24;19.80;77.50
36856;DHT22;22788;51.434;6.786;2022-09-09T10:51:00;19.70;75.70
36856;DHT22;22788;51.434;6.786;2022-09-09T10:53:37;19.80;78.30
36856;DHT22;22788;51.434;6.786;2022-09-09T10:56:10;19.80;78.30
36856;DHT22;22788;51.434;6.786;2022-09-09T10:58:41;19.70;77.00
36856;DHT22;22788;51.434;6.786;2022-09-09T11:01:14;19.80;77.80
36856;DHT22;22788;51.434;6.786;2022-09-09T11:03:41;19.80;77.40
36856;DHT22;22788;51.434;6.786;2022-09-09T11:06:12;19.80;76.90
36856;DHT22;22788;51.434;6.786;2022-09-09T11:08:39;19.70;77.60
36856;DHT22;22788;51.434;6.786;2022-09-09T11:11:12;19.80;77.30
36856;DHT22;22788;51.434;6.786;2022-09-09T11:13:43;19.80;77.80
36856;DHT22;22788;51.434;6.786;2022-09-09T11:16:20;19.90;77.60
36856;DHT22;22788;51.434;6.786;2022-09-09T11:18:47;19.80;77.70
36856;DHT22;22788;51.434;6.786;2022-09-09T11:21:18;19.80;77.20
36856;DHT22;22788;51.434;6.786;2022-09-09T11:23:50;19.80;74.40
36856;DHT22;22788;51.434;6.786;2022-09-09T11:26:28;19.80;76.90
36856;DHT22;22788;51.434;6.786;2022-09-09T11:29:05;19.80;75.90
36856;DHT22;22788;51.434;6.786;2022-09-09T11:31:43;19.80;77.20
36856;DHT22;22788;51.434;6.786;2022-09-09T11:37:19;19.80;76.00
36856;DHT22;22788;51.434;6.786;2022-09-09T11:40:04;19.90;71.80
36856;DHT22;22788;51.434;6.786;2022-09-09T11:42:35;19.90;76.50
36856;DHT22;22788;51.434;6.786;2022-09-09T11:45:09;20.00;75.30
36856;DHT22;22788;51.434;6.786;2022-09-09T11:47:36;20.00;76.20
36856;DHT22;22788;51.434;6.786;2022-09-09T11:50:10;20.10;76.70
36856;DHT22;22788;51.434;6.786;2022-09-09T11:52:38;20.00;75.90
36856;DHT22;22788;51.434;6.786;2022-09-09T11:55:09;20.00;76.90
36856;DHT22;22788;51.434;6.786;2022-09-09T11:57:37;20.10;76.50
36856;DHT22;22788;51.434;6.786;2022-09-09T12:00:05;20.10;75.20
36856;DHT22;22788;51.434;6.786;2022-09-09T12:02:31;20.10;75.30
36856;DHT22;22788;51.434;6.786;2022-09-09T12:05:00;20.00;76.50
36856;DHT22;22788;51.434;6.786;2022-09-09T12:07:33;20.00;72.90
36856;DHT22;22788;51.434;6.786;2022-09-09T12:10:05;20.00;73.20
36856;DHT22;22788;51.434;6.786;2022-09-09T12:12:46;20.10;75.10
36856;DHT22;22788;51.434;6.786;2022-09-09T12:15:25;20.10;75.50
36856;DHT22;22788;51.434;6.786;2022-09-09T12:17:53;20.00;71.90
36856;DHT22;22788;51.434;6.786;2022-09-09T12:20:21;20.00;75.90
36856;DHT22;22788;51.434;6.786;2022-09-09T12:23:10;20.00;74.80
36856;DHT22;22788;51.434;6.786;2022-09-09T12:28:52;20.00;74.70
36856;DHT22;22788;51.434;6.786;2022-09-09T12:31:24;20.00;75.90
36856;DHT22;22788;51.434;6.786;2022-09-09T12:33:51;20.10;75.00
36856;DHT22;22788;51.434;6.786;2022-09-09T12:36:19;20.10;74.40
36856;DHT22;22788;51.434;6.786;2022-09-09T12:38:48;20.00;73.90
36856;DHT22;22788;51.434;6.786;2022-09-09T12:41:19;20.00;76.90
36856;DHT22;22788;51.434;6.786;2022-09-09T12:43:46;20.00;77.20
36856;DHT22;22788;51.434;6.786;2022-09-09T12:46:21;19.90;77.70
36856;DHT22;22788;51.434;6.786;2022-09-09T12:48:49;19.90;77.60
36856;DHT22;22788;51.434;6.786;2022-09-09T12:51:19;19.90;77.80
36856;DHT22;22788;51.434;6.786;2022-09-09T12:53:47;19.90;81.50
36856;DHT22;22788;51.434;6.786;2022-09-09T12:56:19;19.80;78.50
36856;DHT22;22788;51.434;6.786;2022-09-09T12:58:47;19.80;78.60
36856;DHT22;22788;51.434;6.786;2022-09-09T13:01:22;19.80;82.80
36856;DHT22;22788;51.434;6.786;2022-09-09T13:03:48;19.80;80.30
36856;DHT22;22788;51.434;6.786;2022-09-09T13:06:20;19.70;85.50
36856;DHT22;22788;51.434;6.786;2022-09-09T13:08:46;19.60;80.40
36856;DHT22;22788;51.434;6.786;2022-09-09T13:11:15;19.70;80.10
36856;DHT22;22788;51.434;6.786;2022-09-09T13:13:43;19.70;80.90
36856;DHT22;22788;51.434;6.786;2022-09-09T13:16:23;19.70;80.20
36856;DHT22;22788;51.434;6.786;2022-09-09T13:18:51;19.70;80.60
36856;DHT22;22788;51.434;6.786;2022-09-09T13:21:18;19.80;80.30
36856;DHT22;22788;51.434;6.786;2022-09-09T13:23:48;19.80;80.30
36856;DHT22;22788;51.434;6.786;2022-09-09T13:26:23;19.80;82.90
36856;DHT22;22788;51.434;6.786;2022-09-09T13:28:50;19.80;80.70
36856;DHT22;22788;51.434;6.786;2022-09-09T13:31:22;19.80;80.50
36856;DHT22;22788;51.434;6.786;2022-09-09T13:33:49;19.80;80.90
36856;DHT22;22788;51.434;6.786;2022-09-09T13:36:15;19.80;82.30
36856;DHT22;22788;51.434;6.786;2022-09-09T13:38:53;19.80;80.60
36856;DHT22;22788;51.434;6.786;2022-09-09T13:41:21;19.80;80.80
36856;DHT22;22788;51.434;6.786;2022-09-09T13:43:48;19.80;81.60
36856;DHT22;22788;51.434;6.786;2022-09-09T13:46:32;19.80;81.30
36856;DHT22;22788;51.434;6.786;2022-09-09T13:49:01;19.80;81.50
36856;DHT22;22788;51.434;6.786;2022-09-09T13:51:34;19.80;82.20
36856;DHT22;22788;51.434;6.786;2022-09-09T13:54:01;19.80;81.70
36856;DHT22;22788;51.434;6.786;2022-09-09T13:56:27;19.90;81.70
36856;DHT22;22788;51.434;6.786;2022-09-09T13:58:53;19.90;81.20
36856;DHT22;22788;51.434;6.786;2022-09-09T14:01:19;19.90;81.70
36856;DHT22;22788;51.434;6.786;2022-09-09T14:03:46;20.00;81.20
36856;DHT22;22788;51.434;6.786;2022-09-09T14:06:12;20.00;81.10
36856;DHT22;22788;51.434;6.786;2022-09-09T14:08:38;20.00;81.10
36856;DHT22;22788;51.434;6.786;2022-09-09T14:11:04;20.10;81.10
36856;DHT22;22788;51.434;6.786;2022-09-09T14:13:30;20.10;81.30
36856;DHT22;22788;51.434;6.786;2022-09-09T14:15:56;20.00;81.40
36856;DHT22;22788;51.434;6.786;2022-09-09T14:18:22;20.00;81.20
36856;DHT22;22788;51.434;6.786;2022-09-09T14:20:50;20.00;81.40
36856;DHT22;22788;51.434;6.786;2022-09-09T14:23:16;20.00;83.30
36856;DHT22;22788;51.434;6.786;2022-09-09T14:25:42;20.00;82.40
36856;DHT22;22788;51.434;6.786;2022-09-09T14:28:10;20.00;84.20
36856;DHT22;22788;51.434;6.786;2022-09-09T14:30:37;20.00;83.30
36856;DHT22;22788;51.434;6.786;2022-09-09T14:33:03;20.00;81.80
36856;DHT22;22788;51.434;6.786;2022-09-09T14:35:29;20.00;81.90
36856;DHT22;22788;51.434;6.786;2022-09-09T14:37:57;20.10;81.90
36856;DHT22;22788;51.434;6.786;2022-09-09T14:40:23;20.00;81.90
36856;DHT22;22788;51.434;6.786;2022-09-09T14:42:49;20.00;84.00
36856;DHT22;22788;51.434;6.786;2022-09-09T14:45:15;19.50;84.20
36856;DHT22;22788;51.434;6.786;2022-09-09T14:47:41;19.50;84.70
36856;DHT22;22788;51.434;6.786;2022-09-09T14:50:07;19.60;84.00
36856;DHT22;22788;51.434;6.786;2022-09-09T14:52:33;19.70;83.20
36856;DHT22;22788;51.434;6.786;2022-09-09T14:55:01;19.70;83.10
36856;DHT22;22788;51.434;6.786;2022-09-09T14:57:27;19.70;82.90
36856;DHT22;22788;51.434;6.786;2022-09-09T14:59:53;19.70;82.80
36856;DHT22;22788;51.434;6.786;2022-09-09T15:02:19;19.80;83.10
36856;DHT22;22788;51.434;6.786;2022-09-09T15:04:45;19.70;82.90
36856;DHT22;22788;51.434;6.786;2022-09-09T15:07:11;19.70;82.70
36856;DHT22;22788;51.434;6.786;2022-09-09T15:09:37;19.70;82.70
36856;DHT22;22788;51.434;6.786;2022-09-09T15:12:04;19.80;82.80
36856;DHT22;22788;51.434;6.786;2022-09-09T15:14:30;19.70;82.60
36856;DHT22;22788;51.434;6.786;2022-09-09T15:16:56;19.70;82.80
36856;DHT22;22788;51.434;6.786;2022-09-09T15:19:22;19.70;82.80
36856;DHT22;22788;51.434;6.786;2022-09-09T15:21:48;19.70;82.80
36856;DHT22;22788;51.434;6.786;2022-09-09T15:24:14;19.70;82.90
36856;DHT22;22788;51.434;6.786;2022-09-09T15:26:40;19.70;82.80
36856;DHT22;22788;51.434;6.786;2022-09-09T15:29:08;19.70;82.90
36856;DHT22;22788;51.434;6.786;2022-09-09T15:31:34;19.70;82.90
36856;DHT22;22788;51.434;6.786;2022-09-09T15:34:02;19.80;82.90
36856;DHT22;22788;51.434;6.786;2022-09-09T15:36:30;19.70;83.00
36856;DHT22;22788;51.434;6.786;2022-09-09T15:38:56;19.70;83.10
36856;DHT22;22788;51.434;6.786;2022-09-09T15:41:22;19.80;82.90
36856;DHT22;22788;51.434;6.786;2022-09-09T15:43:50;19.80;83.40
36856;DHT22;22788;51.434;6.786;2022-09-09T15:46:27;19.70;83.30
36856;DHT22;22788;51.434;6.786;2022-09-09T15:48:55;19.70;83.40
36856;DHT22;22788;51.434;6.786;2022-09-09T15:51:23;19.70;83.70
36856;DHT22;22788;51.434;6.786;2022-09-09T15:53:53;19.70;83.30
36856;DHT22;22788;51.434;6.786;2022-09-09T15:56:20;19.60;83.30
36856;DHT22;22788;51.434;6.786;2022-09-09T15:58:46;19.70;83.40
36856;DHT22;22788;51.434;6.786;2022-09-09T16:01:13;19.70;83.90
36856;DHT22;22788;51.434;6.786;2022-09-09T16:03:41;19.70;83.40
36856;DHT22;22788;51.434;6.786;2022-09-09T16:06:07;19.70;83.30
36856;DHT22;22788;51.434;6.786;2022-09-09T16:08:34;19.70;83.40
36856;DHT22;22788;51.434;6.786;2022-09-09T16:11:07;19.70;83.20
36856;DHT22;22788;51.434;6.786;2022-09-09T16:13:34;19.70;84.10
36856;DHT22;22788;51.434;6.786;2022-09-09T16:16:01;19.70;83.40
36856;DHT22;22788;51.434;6.786;2022-09-09T16:18:33;19.70;83.40
36856;DHT22;22788;51.434;6.786;2022-09-09T16:21:01;19.70;83.40
36856;DHT22;22788;51.434;6.786;2022-09-09T16:23:27;19.70;83.20
36856;DHT22;22788;51.434;6.786;2022-09-09T16:25:54;19.70;83.70
36856;DHT22;22788;51.434;6.786;2022-09-09T16:28:20;19.70;83.40
36856;DHT22;22788;51.434;6.786;2022-09-09T16:30:46;19.60;83.60
36856;DHT22;22788;51.434;6.786;2022-09-09T16:33:12;19.70;83.60
36856;DHT22;22788;51.434;6.786;2022-09-09T16:35:38;19.80;83.60
36856;DHT22;22788;51.434;6.786;2022-09-09T16:38:06;19.70;83.40
36856;DHT22;22788;51.434;6.786;2022-09-09T16:40:33;19.80;83.30
36856;DHT22;22788;51.434;6.786;2022-09-09T16:42:59;19.70;84.40
36856;DHT22;22788;51.434;6.786;2022-09-09T16:45:25;19.70;83.50
36856;DHT22;22788;51.434;6.786;2022-09-09T16:47:51;19.70;83.50
36856;DHT22;22788;51.434;6.786;2022-09-09T16:50:18;19.60;83.70
36856;DHT22;22788;51.434;6.786;2022-09-09T16:52:44;19.60;83.80
36856;DHT22;22788;51.434;6.786;2022-09-09T16:55:11;19.60;83.70
36856;DHT22;22788;51.434;6.786;2022-09-09T16:57:37;19.60;83.90
36856;DHT22;22788;51.434;6.786;2022-09-09T17:00:04;19.60;83.70
36856;DHT22;22788;51.434;6.786;2022-09-09T17:02:31;19.70;83.80
36856;DHT22;22788;51.434;6.786;2022-09-09T17:04:57;19.60;83.80
36856;DHT22;22788;51.434;6.786;2022-09-09T17:07:23;19.70;83.80
36856;DHT22;22788;51.434;6.786;2022-09-09T17:09:49;19.70;83.80
36856;DHT22;22788;51.434;6.786;2022-09-09T17:12:16;19.70;83.90
36856;DHT22;22788;51.434;6.786;2022-09-09T17:14:42;19.60;84.00
36856;DHT22;22788;51.434;6.786;2022-09-09T17:17:08;19.70;84.10
36856;DHT22;22788;51.434;6.786;2022-09-09T17:19:34;19.60;84.30
36856;DHT22;22788;51.434;6.786;2022-09-09T17:22:00;19.60;84.00
36856;DHT22;22788;51.434;6.786;2022-09-09T17:24:27;19.60;84.00
36856;DHT22;22788;51.434;6.786;2022-09-09T17:26:53;19.60;84.00
36856;DHT22;22788;51.434;6.786;2022-09-09T17:29:20;19.60;84.00
36856;DHT22;22788;51.434;6.786;2022-09-09T17:31:47;19.70;84.10
36856;DHT22;22788;51.434;6.786;2022-09-09T17:34:13;19.60;84.00
36856;DHT22;22788;51.434;6.786;2022-09-09T17:36:39;19.70;84.10
36856;DHT22;22788;51.434;6.786;2022-09-09T17:39:06;19.60;84.10
36856;DHT22;22788;51.434;6.786;2022-09-09T17:41:34;19.60;84.10
36856;DHT22;22788;51.434;6.786;2022-09-09T17:44:00;19.60;84.20
36856;DHT22;22788;51.434;6.786;2022-09-09T17:46:31;19.60;84.10
36856;DHT22;22788;51.434;6.786;2022-09-09T17:48:59;19.60;84.30
36856;DHT22;22788;51.434;6.786;2022-09-09T17:51:27;19.60;84.40
36856;DHT22;22788;51.434;6.786;2022-09-09T17:53:55;19.60;84.30
36856;DHT22;22788;51.434;6.786;2022-09-09T17:56:22;19.60;84.40
36856;DHT22;22788;51.434;6.786;2022-09-09T17:58:49;19.60;84.20
36856;DHT22;22788;51.434;6.786;2022-09-09T18:01:17;19.60;84.60
36856;DHT22;22788;51.434;6.786;2022-09-09T18:03:46;19.60;84.70
36856;DHT22;22788;51.434;6.786;2022-09-09T18:06:15;19.50;84.80
36856;DHT22;22788;51.434;6.786;2022-09-09T18:08:42;19.50;84.60
36856;DHT22;22788;51.434;6.786;2022-09-09T18:11:12;19.60;84.50
36856;DHT22;22788;51.434;6.786;2022-09-09T18:13:38;19.50;84.70
36856;DHT22;22788;51.434;6.786;2022-09-09T18:16:07;19.50;85.60
36856;DHT22;22788;51.434;6.786;2022-09-09T18:18:35;19.50;84.60
36856;DHT22;22788;51.434;6.786;2022-09-09T18:21:05;19.50;84.90
36856;DHT22;22788;51.434;6.786;2022-09-09T18:23:33;19.50;84.50
36856;DHT22;22788;51.434;6.786;2022-09-09T18:25:59;19.50;84.90
36856;DHT22;22788;51.434;6.786;2022-09-09T18:28:26;19.50;85.40
36856;DHT22;22788;51.434;6.786;2022-09-09T18:30:52;19.50;84.70
36856;DHT22;22788;51.434;6.786;2022-09-09T18:33:18;19.50;84.80
36856;DHT22;22788;51.434;6.786;2022-09-09T18:35:44;19.50;84.60
36856;DHT22;22788;51.434;6.786;2022-09-09T18:38:11;19.50;84.60
36856;DHT22;22788;51.434;6.786;2022-09-09T18:40:37;19.50;84.60
36856;DHT22;22788;51.434;6.786;2022-09-09T18:43:04;19.50;84.60
36856;DHT22;22788;51.434;6.786;2022-09-09T18:45:30;19.50;84.70
36856;DHT22;22788;51.434;6.786;2022-09-09T18:47:56;19.50;84.60
36856;DHT22;22788;51.434;6.786;2022-09-09T18:50:22;19.50;84.60
36856;DHT22;22788;51.434;6.786;2022-09-09T18:52:48;19.50;84.70
36856;DHT22;22788;51.434;6.786;2022-09-09T18:55:15;19.50;85.10
36856;DHT22;22788;51.434;6.786;2022-09-09T18:57:41;19.40;84.80
36856;DHT22;22788;51.434;6.786;2022-09-09T19:00:08;19.50;84.90
36856;DHT22;22788;51.434;6.786;2022-09-09T19:02:34;19.40;84.80
36856;DHT22;22788;51.434;6.786;2022-09-09T19:05:00;19.50;84.80
36856;DHT22;22788;51.434;6.786;2022-09-09T19:07:27;19.50;84.60
36856;DHT22;22788;51.434;6.786;2022-09-09T19:09:53;19.50;84.70
36856;DHT22;22788;51.434;6.786;2022-09-09T19:12:20;19.50;85.00
36856;DHT22;22788;51.434;6.786;2022-09-09T19:14:46;19.50;84.70
36856;DHT22;22788;51.434;6.786;2022-09-09T19:17:12;19.40;84.70
36856;DHT22;22788;51.434;6.786;2022-09-09T19:19:38;19.40;84.90
36856;DHT22;22788;51.434;6.786;2022-09-09T19:22:04;19.50;84.80
36856;DHT22;22788;51.434;6.786;2022-09-09T19:24:31;19.50;84.80
36856;DHT22;22788;51.434;6.786;2022-09-09T19:27:00;19.50;85.00
36856;DHT22;22788;51.434;6.786;2022-09-09T19:29:29;19.40;85.20
36856;DHT22;22788;51.434;6.786;2022-09-09T19:31:57;19.40;85.20
36856;DHT22;22788;51.434;6.786;2022-09-09T19:34:24;19.40;85.20
36856;DHT22;22788;51.434;6.786;2022-09-09T19:36:50;19.30;85.00
36856;DHT22;22788;51.434;6.786;2022-09-09T19:39:17;19.40;85.20
36856;DHT22;22788;51.434;6.786;2022-09-09T19:41:43;19.40;85.10
36856;DHT22;22788;51.434;6.786;2022-09-09T19:44:11;19.40;85.20
36856;DHT22;22788;51.434;6.786;2022-09-09T19:46:40;19.40;85.10
36856;DHT22;22788;51.434;6.786;2022-09-09T19:49:07;19.40;85.50
36856;DHT22;22788;51.434;6.786;2022-09-09T19:51:33;19.40;85.00
36856;DHT22;22788;51.434;6.786;2022-09-09T19:54:01;19.40;85.00
36856;DHT22;22788;51.434;6.786;2022-09-09T19:56:29;19.40;85.10
36856;DHT22;22788;51.434;6.786;2022-09-09T19:58:56;19.40;85.00
36856;DHT22;22788;51.434;6.786;2022-09-09T20:01:24;19.40;85.10
36856;DHT22;22788;51.434;6.786;2022-09-09T20:03:52;19.40;85.50
36856;DHT22;22788;51.434;6.786;2022-09-09T20:06:20;19.30;85.00
36856;DHT22;22788;51.434;6.786;2022-09-09T20:08:47;19.30;85.30
36856;DHT22;22788;51.434;6.786;2022-09-09T20:11:14;19.40;85.30
36856;DHT22;22788;51.434;6.786;2022-09-09T20:13:40;19.40;85.10
36856;DHT22;22788;51.434;6.786;2022-09-09T20:16:08;19.40;85.20
36856;DHT22;22788;51.434;6.786;2022-09-09T20:18:36;19.40;85.00
36856;DHT22;22788;51.434;6.786;2022-09-09T20:21:05;19.40;85.10
36856;DHT22;22788;51.434;6.786;2022-09-09T20:23:32;19.40;85.20
36856;DHT22;22788;51.434;6.786;2022-09-09T20:26:00;19.30;85.00
36856;DHT22;22788;51.434;6.786;2022-09-09T20:28:27;19.40;85.20
36856;DHT22;22788;51.434;6.786;2022-09-09T20:30:53;19.40;85.00
36856;DHT22;22788;51.434;6.786;2022-09-09T20:33:19;19.40;85.40
36856;DHT22;22788;51.434;6.786;2022-09-09T20:35:45;19.30;85.20
36856;DHT22;22788;51.434;6.786;2022-09-09T20:38:13;19.40;85.10
36856;DHT22;22788;51.434;6.786;2022-09-09T20:40:40;19.30;85.20
36856;DHT22;22788;51.434;6.786;2022-09-09T20:43:06;19.30;85.30
36856;DHT22;22788;51.434;6.786;2022-09-09T20:45:35;19.30;85.30
36856;DHT22;22788;51.434;6.786;2022-09-09T20:48:01;19.30;85.40
36856;DHT22;22788;51.434;6.786;2022-09-09T20:50:27;19.30;85.40
36856;DHT22;22788;51.434;6.786;2022-09-09T20:52:53;19.30;85.30
36856;DHT22;22788;51.434;6.786;2022-09-09T20:55:21;19.40;85.20
36856;DHT22;22788;51.434;6.786;2022-09-09T20:57:47;19.30;85.10
36856;DHT22;22788;51.434;6.786;2022-09-09T21:00:13;19.30;85.20
36856;DHT22;22788;51.434;6.786;2022-09-09T21:02:39;19.40;86.00
36856;DHT22;22788;51.434;6.786;2022-09-09T21:05:06;19.20;86.10
36856;DHT22;22788;51.434;6.786;2022-09-09T21:07:32;19.30;86.30
36856;DHT22;22788;51.434;6.786;2022-09-09T21:09:58;19.30;86.40
36856;DHT22;22788;51.434;6.786;2022-09-09T21:12:26;19.20;86.30
36856;DHT22;22788;51.434;6.786;2022-09-09T21:14:52;19.30;86.40
36856;DHT22;22788;51.434;6.786;2022-09-09T21:17:18;19.30;86.20
36856;DHT22;22788;51.434;6.786;2022-09-09T21:19:44;19.20;86.40
36856;DHT22;22788;51.434;6.786;2022-09-09T21:22:10;19.20;86.40
36856;DHT22;22788;51.434;6.786;2022-09-09T21:24:36;19.20;86.20
36856;DHT22;22788;51.434;6.786;2022-09-09T21:27:02;19.20;86.20
36856;DHT22;22788;51.434;6.786;2022-09-09T21:29:30;19.20;86.20
36856;DHT22;22788;51.434;6.786;2022-09-09T21:31:56;19.20;86.20
36856;DHT22;22788;51.434;6.786;2022-09-09T21:34:22;19.20;86.00
36856;DHT22;22788;51.434;6.786;2022-09-09T21:36:48;19.10;85.80
36856;DHT22;22788;51.434;6.786;2022-09-09T21:39:14;19.20;86.00
36856;DHT22;22788;51.434;6.786;2022-09-09T21:41:40;19.30;86.10
36856;DHT22;22788;51.434;6.786;2022-09-09T21:44:06;19.20;85.90
36856;DHT22;22788;51.434;6.786;2022-09-09T21:46:34;19.20;86.10
36856;DHT22;22788;51.434;6.786;2022-09-09T21:49:00;19.20;86.00
36856;DHT22;22788;51.434;6.786;2022-09-09T21:51:26;19.20;85.90
36856;DHT22;22788;51.434;6.786;2022-09-09T21:53:54;19.20;86.00
36856;DHT22;22788;51.434;6.786;2022-09-09T21:56:20;19.10;85.90
36856;DHT22;22788;51.434;6.786;2022-09-09T21:58:46;19.20;86.00
36856;DHT22;22788;51.434;6.786;2022-09-09T22:01:13;19.20;86.00
36856;DHT22;22788;51.434;6.786;2022-09-09T22:03:41;19.20;86.00
36856;DHT22;22788;51.434;6.786;2022-09-09T22:06:09;19.20;85.70
36856;DHT22;22788;51.434;6.786;2022-09-09T22:08:36;19.20;85.70
36856;DHT22;22788;51.434;6.786;2022-09-09T22:11:06;19.20;85.90
36856;DHT22;22788;51.434;6.786;2022-09-09T22:13:33;19.20;85.90
36856;DHT22;22788;51.434;6.786;2022-09-09T22:16:01;19.20;85.80
36856;DHT22;22788;51.434;6.786;2022-09-09T22:18:27;19.10;85.80
36856;DHT22;22788;51.434;6.786;2022-09-09T22:20:55;19.20;85.80
36856;DHT22;22788;51.434;6.786;2022-09-09T22:23:21;19.20;85.90
36856;DHT22;22788;51.434;6.786;2022-09-09T22:25:48;19.20;85.80
36856;DHT22;22788;51.434;6.786;2022-09-09T22:28:14;19.20;85.90
36856;DHT22;22788;51.434;6.786;2022-09-09T22:30:40;19.20;85.80
36856;DHT22;22788;51.434;6.786;2022-09-09T22:33:06;19.20;85.70
36856;DHT22;22788;51.434;6.786;2022-09-09T22:35:38;19.10;85.70
36856;DHT22;22788;51.434;6.786;2022-09-09T22:38:06;19.10;85.80
36856;DHT22;22788;51.434;6.786;2022-09-09T22:40:34;19.10;85.70
36856;DHT22;22788;51.434;6.786;2022-09-09T22:43:00;19.10;86.00
36856;DHT22;22788;51.434;6.786;2022-09-09T22:45:26;19.20;86.00
36856;DHT22;22788;51.434;6.786;2022-09-09T22:47:52;19.10;85.80
36856;DHT22;22788;51.434;6.786;2022-09-09T22:50:18;19.10;85.80
36856;DHT22;22788;51.434;6.786;2022-09-09T22:52:44;19.10;85.90
36856;DHT22;22788;51.434;6.786;2022-09-09T22:55:11;19.10;85.80
36856;DHT22;22788;51.434;6.786;2022-09-09T22:57:37;19.10;86.00
36856;DHT22;22788;51.434;6.786;2022-09-09T23:00:04;19.10;85.70
36856;DHT22;22788;51.434;6.786;2022-09-09T23:02:30;19.10;85.70
36856;DHT22;22788;51.434;6.786;2022-09-09T23:04:56;19.10;85.90
36856;DHT22;22788;51.434;6.786;2022-09-09T23:07:22;19.10;85.80
36856;DHT22;22788;51.434;6.786;2022-09-09T23:09:48;19.10;85.90
36856;DHT22;22788;51.434;6.786;2022-09-09T23:12:18;19.00;85.80
36856;DHT22;22788;51.434;6.786;2022-09-09T23:14:44;19.00;85.90
36856;DHT22;22788;51.434;6.786;2022-09-09T23:17:10;19.00;86.10
36856;DHT22;22788;51.434;6.786;2022-09-09T23:19:36;19.00;86.00
36856;DHT22;22788;51.434;6.786;2022-09-09T23:22:02;19.00;85.90
36856;DHT22;22788;51.434;6.786;2022-09-09T23:24:28;19.00;85.90
36856;DHT22;22788;51.434;6.786;2022-09-09T23:26:54;19.00;85.80
36856;DHT22;22788;51.434;6.786;2022-09-09T23:29:21;19.00;85.90
36856;DHT22;22788;51.434;6.786;2022-09-09T23:31:47;19.00;85.80
36856;DHT22;22788;51.434;6.786;2022-09-09T23:34:14;19.00;85.70
36856;DHT22;22788;51.434;6.786;2022-09-09T23:36:40;19.00;85.70
36856;DHT22;22788;51.434;6.786;2022-09-09T23:39:07;19.00;86.00
36856;DHT22;22788;51.434;6.786;2022-09-09T23:41:35;19.00;85.70
36856;DHT22;22788;51.434;6.786;2022-09-09T23:44:02;19.00;85.70
36856;DHT22;22788;51.434;6.786;2022-09-09T23:46:31;19.00;85.80
36856;DHT22;22788;51.434;6.786;2022-09-09T23:48:58;19.00;85.80
36856;DHT22;22788;51.434;6.786;2022-09-09T23:51:26;18.90;85.80
36856;DHT22;22788;51.434;6.786;2022-09-09T23:53:53;18.90;85.90
36856;DHT22;22788;51.434;6.786;2022-09-09T23:56:21;19.00;85.80
36856;DHT22;22788;51.434;6.786;2022-09-09T23:58:48;18.90;85.90
